ミッドウェー島 の空港の天気 - METARとTAF

ヘンダーソン基地 ( PMDY / MDY ) - 合衆国領有小離島 ミッドウェー島
飛行場実況気象(Metar)
観測時間09/25 09:18 SST (09/25 20:18 UTC)
風向・風速北東 6m/s
視程10km以上
天気現象
全天の4割程度の雲 雲底高度 370m
全天の4割程度の雲 雲底高度 520m
全天の8割程度の雲 雲底高度 1130m
気温24℃
湿度89%
気圧1011hPa
METARPMDY 252018Z AUTO 04012KT 10SM SCT012 SCT017 BKN037 24/22 A2984 RMK AO2 TSNO
過去の天気等 Google飛行場航空写真 Wunderground天気予報

過去48時間のMETAR

飛行場予報(TAF)
発表時間: 9/25 06:41 SST (9/25 17:41 UTC)
予報対象時間: 25日7時 SST ~ 26日7時 SST
風向・風速北東 6m/s
視程10km以上
天気現象周辺でしゅう雨
少しの雲 雲底高度 460m
全天の8割程度の雲 雲底高度 760m
PMDY 251741Z 2518/2618 04011KT P6SM VCSH FEW015 BKN025